Date,TemperatureHighF,TemperatureAvgF,TemperatureLowF,DewpointHighF,DewpointAvgF,DewpointLowF,HumidityHigh,HumidityAvg,HumidityLow,PressureMaxIn,PressureMinIn,WindSpeedMaxMPH,WindSpeedAvgMPH,GustSpeedMaxMPH,PrecipitationSumIn
2013-4-1,60.0,47.0,39.0,41.0,38.8,37.0,96,75,48,0.00,40.00,8,3,12,0.00
2013-4-2,63.0,47.4,37.0,39.0,36.5,35.0,94,69,39,0.00,40.00,9,7,15,0.00
2013-4-3,65.0,49.5,33.0,38.0,31.8,25.0,100,57,22,0.00,40.00,9,5,15,0.00
2013-4-4,57.0,47.6,39.0,43.0,35.1,30.0,88,63,46,0.00,40.00,20,10,34,0.02
2013-4-5,52.0,40.5,36.0,40.0,36.1,34.0,99,86,53,0.00,40.00,15,10,28,0.13
2013-4-6,49.0,39.3,35.0,37.0,34.6,30.0,99,85,47,0.00,40.00,15,11,30,0.11
2013-4-7,43.0,35.9,29.0,36.0,30.0,23.0,99,80,55,0.00,40.00,25,14,58,0.12
2013-4-8,47.0,33.3,25.0,26.0,22.4,19.0,88,66,43,0.00,40.00,6,4,15,0.01
2013-4-9,56.0,41.6,26.0,34.0,26.3,18.0,92,59,24,0.00,40.00,5,3,9,0.00
2013-4-10,54.0,44.7,35.0,42.0,34.9,28.0,82,69,46,0.00,40.00,17,10,31,0.00
2013-4-11,54.0,39.7,28.0,29.0,24.5,20.0,90,59,30,0.00,40.00,9,5,20,0.00
2013-4-12,57.0,40.5,28.0,34.0,24.6,11.0,86,60,17,0.00,40.00,18,9,35,0.00
2013-4-13,46.0,36.7,26.0,33.0,20.8,16.0,77,54,29,0.00,40.00,18,10,35,0.00
2013-4-14,39.0,29.4,24.0,27.0,20.1,15.0,97,69,41,0.00,40.00,8,4,13,0.00
2013-4-15,39.0,29.6,26.0,29.0,26.6,25.0,99,89,61,0.00,40.00,5,2,16,0.20
2013-4-16,39.0,29.7,25.0,29.0,26.7,24.0,98,89,65,0.00,40.00,4,2,14,0.28
2013-4-17,48.0,35.8,24.0,26.0,20.0,15.0,97,57,28,0.00,40.00,5,3,12,0.02
2013-4-18,58.0,42.6,30.0,36.0,30.6,24.0,84,65,39,0.00,40.00,9,5,15,0.01
2013-4-19,52.0,42.6,35.0,40.0,36.3,32.0,95,79,57,0.00,40.00,14,9,26,0.05
2013-4-20,58.0,43.0,33.0,33.0,31.0,28.0,94,67,32,0.00,40.00,11,7,18,0.02
2013-4-21,57.0,44.5,35.0,38.0,32.9,26.0,87,65,43,0.00,40.00,11,9,22,0.00
2013-4-22,52.0,39.8,30.0,36.0,25.1,15.0,97,61,28,0.00,40.00,6,3,20,0.00
2013-4-23,62.0,43.5,26.0,16.0,10.0,-1.0,61,31,8,0.00,40.00,7,4,16,0.00
2013-4-24,68.0,49.3,29.0,19.0,13.6,9.0,50,27,11,0.00,40.00,5,3,14,0.00
2013-4-25,71.0,59.8,36.0,31.0,26.7,13.0,40,29,21,0.00,40.00,8,4,16,0.00
2013-4-26,78.0,62.4,41.0,36.0,27.3,18.0,70,31,12,0.00,40.00,7,4,15,0.00
2013-4-27,73.0,59.2,41.0,32.0,27.1,20.0,63,32,15,0.00,40.00,12,8,28,0.00
2013-4-28,64.0,50.3,41.0,34.0,27.8,22.0,63,43,22,0.00,40.00,13,9,26,0.00
2013-4-29,55.0,45.5,32.0,41.0,33.7,23.0,98,67,32,0.00,40.00,15,10,32,0.00
2013-4-30,50.0,37.6,22.0,24.0,17.5,12.0,86,49,21,0.00,40.00,6,4,16,0.00